Time;durP1;ratioP1;P1;durP2;ratioP2;P2;SDS_P1;SDS_P2;PMS_P1;PMS_P2;Temp;Humidity;BMP_temperature;BMP_pressure;BME280_temperature;BME280_humidity;BME280_pressure;Samples;Min_cycle;Max_cycle;Signal;HPM_P1;HPM_P2
2023/01/13 05:01:40;;;;;;;2.17;1.00;;;11.20;99.90;;;-146.68;100.00;58542.28;5271565;23;20049;-77
2023/01/13 05:04:08;;;;;;;2.60;1.08;;;12.60;99.90;;;-146.68;100.00;58542.28;4881127;29;20052;-77
2023/01/13 05:06:35;;;;;;;3.05;1.20;;;11.20;99.90;;;-146.68;100.00;58542.28;4912147;29;20044;-77
2023/01/13 05:09:04;;;;;;;1.05;0.95;;;11.80;99.90;;;-146.68;100.00;58542.28;4895734;29;20044;-78
2023/01/13 05:17:06;;;;;;;1.85;1.35;;;11.30;99.70;;;-146.68;100.00;58542.28;4835350;23;20102;-76
2023/01/13 05:19:37;;;;;;;2.47;1.08;;;11.90;99.80;;;-146.68;100.00;58542.28;4845166;29;20067;-76
2023/01/13 05:27:37;;;;;;;1.13;1.00;;;11.30;99.50;;;-146.68;100.00;58542.28;4868251;29;20048;-76
2023/01/13 05:30:06;;;;;;;1.50;1.05;;;11.70;99.60;;;-146.68;100.00;58542.28;4855781;29;20050;-76
2023/01/13 05:32:33;;;;;;;1.65;1.00;;;11.30;99.40;;;-146.68;100.00;58542.28;4850284;29;20061;-76
2023/01/13 05:35:00;;;;;;;1.88;1.23;;;11.30;99.50;;;-146.68;100.00;58542.28;4844509;29;20045;-76
2023/01/13 05:37:27;;;;;;;2.17;1.00;;;11.40;99.40;;;-146.68;100.00;58542.28;4863229;29;20053;-75
2023/01/13 05:45:29;;;;;;;1.60;1.23;;;11.30;99.30;;;-146.68;100.00;58542.28;4861064;29;20059;-78
2023/01/13 05:47:57;;;;;;;3.53;1.00;;;11.50;99.30;;;-146.68;100.00;58542.28;4843235;29;20627;-76
2023/01/13 05:50:24;;;;;;;2.47;1.23;;;11.30;99.30;;;-146.68;100.00;58542.28;4854923;29;20038;-76
2023/01/13 05:52:51;;;;;;;5.35;2.55;;;11.30;99.40;;;-146.68;100.00;58542.28;4854472;29;20053;-76
2023/01/13 05:55:18;;;;;;;3.92;1.55;;;11.30;99.30;;;-146.68;100.00;58542.28;4854585;29;20065;-76
2023/01/13 05:57:45;;;;;;;2.42;1.70;;;12.60;99.80;;;-146.68;100.00;58542.28;4841421;29;20060;-76
2023/01/13 06:00:13;;;;;;;1.27;1.17;;;11.30;99.40;;;-146.68;100.00;58542.28;4860444;29;20051;-76
2023/01/13 06:02:40;;;;;;;1.30;0.90;;;11.30;99.50;;;-146.68;100.00;58542.28;4838594;29;20052;-76
2023/01/13 06:05:08;;;;;;;1.73;1.15;;;11.60;99.50;;;-146.68;100.00;58542.28;4845099;29;20732;-76
2023/01/13 06:07:35;;;;;;;3.20;2.17;;;12.10;99.60;;;-146.68;100.00;58542.28;4858847;29;20508;-75
2023/01/13 06:10:03;;;;;;;1.02;0.88;;;11.40;99.50;;;-146.68;100.00;58542.28;4843301;29;20140;-76
2023/01/13 06:12:30;;;;;;;2.35;0.95;;;11.30;99.40;;;-146.68;100.00;58542.28;4843684;29;20048;-75
2023/01/13 06:14:57;;;;;;;1.70;1.17;;;11.30;99.40;;;-146.68;100.00;58542.28;4842720;29;20061;-75
2023/01/13 06:17:25;;;;;;;2.28;1.20;;;11.30;99.40;;;-146.68;100.00;58542.28;4827713;29;20073;-76
2023/01/13 06:19:52;;;;;;;1.90;0.98;;;11.30;99.60;;;-146.68;100.00;58542.28;4858180;29;20052;-76
2023/01/13 06:22:27;;;;;;;1.38;1.20;;;11.90;99.80;;;-146.68;100.00;58542.28;4854226;29;20049;-76
2023/01/13 06:24:55;;;;;;;1.63;1.50;;;12.50;99.90;;;-146.68;100.00;58542.28;4846643;29;20113;-77
2023/01/13 06:27:23;;;;;;;2.03;1.50;;;11.30;99.70;;;-146.68;100.00;58542.28;4839249;29;20059;-76
2023/01/13 06:29:50;;;;;;;2.53;1.00;;;12.20;99.90;;;-146.68;100.00;58542.28;4839826;29;20414;-75
2023/01/13 06:32:24;;;;;;;3.13;1.75;;;11.90;99.90;;;-146.68;100.00;58542.28;4865366;29;20072;-77
2023/01/13 06:35:00;;;;;;;1.50;1.27;;;11.10;99.90;;;-146.68;100.00;58542.28;4863174;29;20053;-76
2023/01/13 06:37:30;;;;;;;2.53;1.30;;;11.10;99.90;;;-146.68;100.00;58542.28;4863722;29;20505;-78
2023/01/13 06:40:00;;;;;;;2.30;1.85;;;10.70;99.90;;;-146.68;100.00;58542.28;4864097;29;20056;-78
2023/01/13 06:45:20;;;;;;;1.48;1.10;;;10.90;99.90;;;-146.68;100.00;58542.28;4861050;29;20081;-77
2023/01/13 06:47:47;;;;;;;1.13;1.02;;;10.50;99.90;;;-146.68;100.00;58542.28;4863562;29;20049;-78
2023/01/13 06:50:17;;;;;;;3.42;1.08;;;10.40;99.90;;;-146.68;100.00;58542.28;4863623;29;20060;-77
2023/01/13 06:52:44;;;;;;;1.83;1.23;;;10.40;99.90;;;-146.68;100.00;58542.28;4866157;29;20045;-77
2023/01/13 06:55:13;;;;;;;1.45;0.95;;;11.30;99.90;;;-146.68;100.00;58542.28;4862039;29;20087;-77
2023/01/13 06:57:55;;;;;;;2.60;1.33;;;10.50;99.90;;;-146.68;100.00;58542.28;4847880;29;20060;-77
2023/01/13 07:00:24;;;;;;;2.25;0.95;;;10.50;99.90;;;-146.68;100.00;58542.28;4862515;29;20097;-77
2023/01/13 07:02:52;;;;;;;2.30;1.00;;;10.50;99.90;;;-146.68;100.00;58542.28;4877372;29;20053;-77
2023/01/13 07:05:20;;;;;;;1.20;1.10;;;10.40;99.90;;;-146.68;100.00;58542.28;4863700;29;20049;-77
2023/01/13 07:07:47;;;;;;;2.70;0.85;;;11.60;99.90;;;-146.68;100.00;58542.28;4847471;29;20133;-77
2023/01/13 07:10:20;;;;;;;2.05;1.20;;;10.40;99.90;;;-146.68;100.00;58542.28;4854344;29;20069;-76
2023/01/13 07:15:35;;;;;;;2.53;2.25;;;10.90;99.90;;;-146.68;100.00;58542.28;4881444;29;20128;-77
2023/01/13 07:18:02;;;;;;;5.10;2.00;;;10.80;99.90;;;-146.68;100.00;58542.28;4843755;29;20053;-77
2023/01/13 07:20:30;;;;;;;4.00;1.60;;;10.00;99.90;;;-146.68;100.00;58542.28;4849110;29;20136;-77
2023/01/13 07:22:59;;;;;;;4.15;1.40;;;10.70;99.90;;;-146.68;100.00;58542.28;4842009;29;20053;-77
2023/01/13 07:25:26;;;;;;;1.88;1.30;;;9.80;99.90;;;-146.68;100.00;58542.28;4846423;29;20523;-77
2023/01/13 07:27:56;;;;;;;3.60;1.65;;;9.70;99.90;;;-146.68;100.00;58542.28;4873630;29;20482;-77
2023/01/13 07:30:24;;;;;;;;;;;10.40;99.90;;;-146.68;100.00;58542.28;4861676;29;20049;-75
2023/01/13 07:32:52;;;;;;;3.65;1.50;;;10.80;99.90;;;-146.68;100.00;58542.28;4845131;29;19923;-77
2023/01/13 07:35:21;;;;;;;3.67;1.60;;;9.60;99.90;;;-146.68;100.00;58542.28;4844023;29;20081;-76
2023/01/13 07:37:49;;;;;;;5.07;2.03;;;9.50;99.90;;;-146.68;100.00;58542.28;4846496;29;20090;-76
2023/01/13 07:40:16;;;;;;;5.32;2.95;;;9.50;99.90;;;-146.68;100.00;58542.28;4865709;29;20041;-75
2023/01/13 07:45:31;;;;;;;5.55;2.75;;;9.50;99.90;;;-146.68;100.00;58542.28;4860947;29;20056;-75
2023/01/13 07:47:59;;;;;;;5.22;2.58;;;9.50;99.90;;;-146.68;100.00;58542.28;4884789;29;20053;-77
2023/01/13 07:50:26;;;;;;;5.43;2.72;;;9.50;99.90;;;-146.68;100.00;58542.28;4845653;29;20036;-76
2023/01/13 07:52:57;;;;;;;3.50;1.92;;;10.40;99.90;;;-146.68;100.00;58542.28;4839722;29;20536;-68
2023/01/13 07:55:24;;;;;;;5.15;2.67;;;9.50;99.90;;;-146.68;100.00;58542.28;4857727;29;20050;-71
2023/01/13 07:57:51;;;;;;;4.15;2.35;;;9.60;99.90;;;-146.68;100.00;58542.28;4849459;29;20056;-72
2023/01/13 08:00:19;;;;;;;2.05;1.63;;;9.50;99.90;;;-146.68;100.00;58542.28;4856577;29;20403;-69
2023/01/13 08:02:46;;;;;;;2.70;1.52;;;9.50;99.90;;;-146.68;100.00;58542.28;4855077;29;20685;-70
2023/01/13 08:05:14;;;;;;;3.30;1.58;;;9.40;99.90;;;-146.68;100.00;58542.28;4876332;29;20045;-70
2023/01/13 08:07:41;;;;;;;2.30;1.50;;;9.40;99.90;;;-146.68;100.00;58542.28;4875385;29;20045;-71
2023/01/13 08:10:09;;;;;;;3.58;1.80;;;9.40;99.90;;;-146.68;100.00;58542.28;4856565;29;20818;-71
2023/01/13 08:15:23;;;;;;;6.22;2.95;;;9.40;99.90;;;-146.68;100.00;58542.28;4876324;29;20557;-71
2023/01/13 08:17:50;;;;;;;4.45;2.22;;;10.00;99.90;;;-146.68;100.00;58542.28;4853853;29;20687;-70
2023/01/13 08:20:18;;;;;;;3.90;1.63;;;9.40;99.90;;;-146.68;100.00;58542.28;4861932;29;20044;-71
2023/01/13 08:22:45;;;;;;;4.72;1.50;;;9.50;99.90;;;-146.68;100.00;58542.28;4855027;29;20060;-71
2023/01/13 08:25:12;;;;;;;8.05;2.00;;;9.50;99.90;;;-146.68;100.00;58542.28;4855741;29;20525;-72
2023/01/13 08:27:39;;;;;;;5.00;2.53;;;9.50;99.90;;;-146.68;100.00;58542.28;4886971;29;20049;-71
2023/01/13 08:30:07;;;;;;;5.00;1.60;;;9.50;99.90;;;-146.68;100.00;58542.28;4875907;29;20068;-71
2023/01/13 08:32:35;;;;;;;9.23;2.95;;;9.50;99.90;;;-146.68;100.00;58542.28;4859309;29;20747;-71
2023/01/13 08:35:02;;;;;;;10.68;4.50;;;9.40;99.90;;;-146.68;100.00;58542.28;4859252;29;20037;-71
2023/01/13 08:37:29;;;;;;;5.07;2.60;;;9.40;99.90;;;-146.68;100.00;58542.28;4845301;29;20045;-70
2023/01/13 08:39:56;;;;;;;7.72;4.05;;;9.40;99.90;;;-146.68;100.00;58542.28;4859056;29;20442;-70
2023/01/13 08:42:25;;;;;;;13.75;6.07;;;9.40;99.90;;;-146.68;100.00;58542.28;4854639;29;20049;-70
2023/01/13 08:44:53;;;;;;;13.10;4.85;;;9.40;99.90;;;-146.68;100.00;58542.28;4857036;29;20053;-70
2023/01/13 08:47:21;;;;;;;10.18;3.80;;;9.40;99.90;;;-146.68;100.00;58542.28;4844420;29;20613;-70
2023/01/13 08:49:48;;;;;;;11.27;4.32;;;9.40;99.90;;;-146.68;100.00;58542.28;4858602;29;20057;-70
2023/01/13 08:52:15;;;;;;;10.55;6.10;;;9.50;99.90;;;-146.68;100.00;58542.28;4858083;29;20049;-70
2023/01/13 08:54:43;;;;;;;8.07;4.43;;;9.40;99.90;;;-146.68;100.00;58542.28;4857426;29;20052;-70
2023/01/13 08:57:10;;;;;;;6.68;4.32;;;9.50;99.90;;;-146.68;100.00;58542.28;4840521;29;20051;-69
2023/01/13 08:59:38;;;;;;;5.47;3.42;;;9.40;99.90;;;-146.68;100.00;58542.28;4824412;29;20246;-72
2023/01/13 09:02:21;;;;;;;5.43;2.83;;;9.50;99.90;;;-146.68;100.00;58542.28;4829280;29;20049;-74
2023/01/13 09:04:49;;;;;;;7.97;2.63;;;9.50;99.90;;;-146.68;100.00;58542.28;4850780;29;20057;-72
2023/01/13 09:07:17;;;;;;;3.10;1.88;;;9.60;99.90;;;-146.68;100.00;58542.28;4841254;29;20064;-72
2023/01/13 09:09:45;;;;;;;4.82;1.95;;;9.60;99.90;;;-146.68;100.00;58542.28;4858197;29;20037;-73
2023/01/13 09:15:05;;;;;;;2.90;2.13;;;9.70;99.90;;;-146.68;100.00;58542.28;4860973;29;20068;-72
2023/01/13 09:17:32;;;;;;;3.83;1.50;;;9.70;99.90;;;-146.68;100.00;58542.28;4859162;29;20494;-71
2023/01/13 09:19:59;;;;;;;2.63;1.90;;;9.70;99.90;;;-146.68;100.00;58542.28;4858821;29;20049;-72
2023/01/13 09:22:26;;;;;;;5.75;2.50;;;9.80;99.90;;;-146.68;100.00;58542.28;4858754;29;20049;-73
2023/01/13 09:24:54;;;;;;;3.65;2.35;;;9.80;99.90;;;-146.68;100.00;58542.28;4858553;29;20053;-71
2023/01/13 09:27:22;;;;;;;2.80;1.60;;;9.80;99.90;;;-146.68;100.00;58542.28;4873862;29;20713;-71
2023/01/13 09:29:49;;;;;;;4.82;1.70;;;9.80;99.90;;;-146.68;100.00;58542.28;4855875;29;20679;-72
2023/01/13 09:32:16;;;;;;;3.70;1.65;;;9.80;99.90;;;-146.68;100.00;58542.28;4843067;29;20045;-76
2023/01/13 09:34:59;;;;;;;6.10;2.10;;;9.80;99.90;;;-146.68;100.00;58542.28;4873948;29;20152;-73
2023/01/13 09:37:36;;;;;;;5.03;2.13;;;9.80;99.90;;;-146.68;100.00;58542.28;4869044;29;20124;-74
2023/01/13 09:40:21;;;;;;;6.90;2.35;;;9.80;99.90;;;-146.68;100.00;58542.28;4858119;29;20128;-71
2023/01/13 09:46:42;;;;;;;5.10;2.13;;;9.80;99.90;;;-146.68;100.00;58542.28;4856430;29;20052;-71
2023/01/13 09:49:03;;;;;;;3.92;1.65;;;9.90;99.90;;;-146.68;100.00;58542.28;4863381;29;20063;-71
2023/01/13 09:51:44;;;;;;;3.78;1.60;;;9.80;99.90;;;-146.68;100.00;58542.28;4874342;29;20049;-72
2023/01/13 09:54:31;;;;;;;3.63;1.50;;;10.30;99.90;;;-146.68;100.00;58542.28;4844272;29;20051;-72
2023/01/13 09:56:59;;;;;;;2.63;1.60;;;10.10;99.90;;;-146.68;100.00;58542.28;4857874;29;20063;-73
2023/01/13 09:59:35;;;;;;;2.42;1.70;;;9.90;99.90;;;-146.68;100.00;58542.28;4866493;29;20052;-73
2023/01/13 10:02:38;;;;;;;3.65;1.70;;;10.00;99.90;;;-146.68;100.00;58542.28;4834455;29;20057;-71
2023/01/13 10:05:21;;;;;;;4.82;1.38;;;10.00;99.90;;;-146.68;100.00;58542.28;4858309;29;20053;-71
2023/01/13 10:08:04;;;;;;;2.45;1.77;;;10.20;99.90;;;-146.68;100.00;58542.28;4859168;29;20064;-71
2023/01/13 10:13:12;;;;;;;2.75;1.50;;;10.20;99.90;;;-146.68;100.00;58542.28;4857681;29;20053;-72
2023/01/13 10:13:59;;;;;;;5.65;2.22;;;10.20;99.90;;;-146.68;100.00;58542.28;4873483;29;20049;-72
2023/01/13 10:17:23;;;;;;;5.30;2.35;;;10.20;99.90;;;-146.68;100.00;58542.28;4842959;29;20049;-72
2023/01/13 10:20:06;;;;;;;6.07;2.58;;;10.20;99.90;;;-146.68;100.00;58542.28;4856883;29;20136;-72
2023/01/13 10:22:42;;;;;;;6.28;2.40;;;10.20;99.90;;;-146.68;100.00;58542.28;4852205;29;20049;-71
2023/01/13 10:25:21;;;;;;;5.85;2.58;;;10.20;99.90;;;-146.68;100.00;58542.28;4864339;29;20058;-70
2023/01/13 10:27:51;;;;;;;7.28;3.67;;;10.30;99.90;;;-146.68;100.00;58542.28;4841859;29;20056;-72
2023/01/13 10:30:21;;;;;;;6.15;3.35;;;10.30;99.90;;;-146.68;100.00;58542.28;4874334;29;20403;-70
2023/01/13 10:32:56;;;;;;;3.38;2.15;;;10.40;99.90;;;-146.68;100.00;58542.28;4857597;29;20061;-71
2023/01/13 10:36:11;;;;;;;3.58;2.40;;;11.10;99.90;;;-146.68;100.00;58542.28;4843162;29;20544;-73
2023/01/13 10:38:46;;;;;;;4.05;1.90;;;10.50;99.90;;;-146.68;100.00;58542.28;4857457;29;20044;-71
2023/01/13 10:41:35;;;;;;;7.15;1.70;;;10.50;99.90;;;-146.68;100.00;58542.28;4874523;29;20049;-71
2023/01/13 10:44:14;;;;;;;7.13;2.10;;;11.10;99.90;;;-146.68;100.00;58542.28;4765435;30;20051;-71
2023/01/13 10:46:57;;;;;;;5.77;2.23;;;10.50;99.90;;;-146.68;100.00;58542.28;4780298;30;20582;-70
2023/01/13 10:49:32;;;;;;;5.05;1.98;;;10.40;99.90;;;-146.68;100.00;58542.28;4757547;30;20293;-70
2023/01/13 10:52:01;;;;;;;8.30;2.45;;;10.40;99.90;;;-146.68;100.00;58542.28;4778553;29;20044;-71
2023/01/13 10:54:29;;;;;;;7.28;3.05;;;10.40;99.90;;;-146.68;100.00;58542.28;4795215;29;20072;-69
2023/01/13 10:57:35;;;;;;;9.65;2.72;;;10.80;99.90;;;-146.68;100.00;58542.28;4795272;29;20056;-70
2023/01/13 11:00:24;;;;;;;9.05;2.30;;;10.50;99.90;;;-146.68;100.00;58542.28;4730868;30;20122;-69
2023/01/13 11:03:22;;;;;;;11.63;2.30;;;10.50;99.90;;;-146.68;100.00;58542.28;4777436;30;20055;-71
2023/01/13 11:05:58;;;;;;;10.05;2.70;;;10.50;99.90;;;-146.68;100.00;58542.28;4789891;29;20120;-71
2023/01/13 11:08:41;;;;;;;7.45;2.58;;;10.50;99.90;;;-146.68;100.00;58542.28;4777918;30;20197;-71
2023/01/13 11:11:54;;;;;;;8.55;3.00;;;10.50;99.90;;;-146.68;100.00;58542.28;4790889;29;20067;-70
2023/01/13 11:14:40;;;;;;;10.32;3.10;;;10.60;99.90;;;-146.68;100.00;58542.28;4772573;30;20147;-70
2023/01/13 11:17:44;;;;;;;10.63;3.80;;;10.60;99.90;;;-146.68;100.00;58542.28;4775977;30;20630;-71
2023/01/13 11:20:11;;;;;;;13.68;4.93;;;10.70;99.90;;;-146.68;100.00;58542.28;4765719;29;20055;-72
2023/01/13 11:22:54;;;;;;;7.13;2.58;;;10.70;99.90;;;-146.68;100.00;58542.28;4859999;29;20646;-72
2023/01/13 11:25:31;;;;;;;7.82;3.05;;;10.70;99.90;;;-146.68;100.00;58542.28;4842684;29;20060;-72
2023/01/13 11:28:38;;;;;;;6.03;2.17;;;10.60;99.90;;;-146.68;100.00;58542.28;4874863;29;20072;-71
2023/01/13 11:31:24;;;;;;;10.77;3.25;;;10.50;99.90;;;-146.68;100.00;58542.28;4846199;29;20057;-70
2023/01/13 11:34:23;;;;;;;10.02;3.45;;;10.50;99.90;;;-146.68;100.00;58542.28;4845349;29;20046;-71
2023/01/13 11:36:54;;;;;;;8.88;3.05;;;10.40;99.90;;;-146.68;100.00;58542.28;4821341;29;20060;-70
2023/01/13 11:40:17;;;;;;;8.18;2.85;;;10.30;99.90;;;-146.68;100.00;58542.28;4829127;29;20067;-71
2023/01/13 11:43:03;;;;;;;9.80;2.65;;;10.20;99.90;;;-146.68;100.00;58542.28;4856080;29;20470;-70
2023/01/13 11:45:57;;;;;;;11.75;4.32;;;10.10;99.90;;;-146.68;100.00;58542.28;4860852;29;20045;-71
2023/01/13 11:48:30;;;;;;;9.30;2.83;;;10.60;99.90;;;-146.68;100.00;58542.28;4846337;29;20510;-71
2023/01/13 11:51:12;;;;;;;8.30;3.83;;;10.30;99.90;;;-146.68;100.00;58542.28;4836523;29;20051;-70
2023/01/13 11:53:58;;;;;;;11.95;5.10;;;10.40;99.90;;;-146.68;100.00;58542.28;4858582;29;20051;-70
2023/01/13 11:56:34;;;;;;;10.25;4.47;;;10.50;99.90;;;-146.68;100.00;58542.28;4842722;29;20414;-71
2023/01/13 11:59:33;;;;;;;12.77;3.47;;;11.00;99.90;;;-146.68;100.00;58542.28;4858474;29;20121;-72
2023/01/13 12:02:03;;;;;;;8.85;3.85;;;10.60;99.80;;;-146.68;100.00;58542.28;4815341;29;20056;-71
2023/01/13 12:04:52;;;;;;;;;;;10.70;99.70;;;-146.68;100.00;58542.28;4860770;29;20057;-71
2023/01/13 12:07:57;;;;;;;12.82;5.15;;;10.80;98.00;;;-146.68;100.00;58542.28;4843182;29;19932;-70
2023/01/13 12:10:55;;;;;;;30.75;6.97;;;10.90;97.50;;;-146.68;100.00;58542.28;4872154;29;20467;-70
2023/01/13 12:13:44;;;;;;;9.32;3.20;;;10.90;97.40;;;-146.68;100.00;58542.28;4861587;29;20052;-71
2023/01/13 12:16:11;;;;;;;12.05;4.57;;;10.90;97.30;;;-146.68;100.00;58542.28;4860008;29;20441;-72
2023/01/13 12:18:49;;;;;;;12.48;4.40;;;11.00;97.10;;;-146.68;100.00;58542.28;4858551;29;20722;-70
2023/01/13 12:21:33;;;;;;;9.38;3.03;;;11.00;96.80;;;-146.68;100.00;58542.28;4867865;29;20057;-70
2023/01/13 12:24:16;;;;;;;8.18;2.78;;;11.00;97.00;;;-146.68;100.00;58542.28;4856841;29;20182;-70
2023/01/13 12:27:18;;;;;;;8.32;2.70;;;11.40;97.60;;;-146.68;100.00;58542.28;4875889;29;20112;-71
2023/01/13 12:29:50;;;;;;;10.32;4.10;;;10.80;97.70;;;-146.68;100.00;58542.28;4844353;29;20057;-70
2023/01/13 12:32:33;;;;;;;7.97;3.15;;;10.80;97.40;;;-146.68;100.00;58542.28;4853238;29;20045;-70
2023/01/13 12:35:42;;;;;;;7.35;2.85;;;10.80;97.10;;;-146.68;100.00;58542.28;4856512;29;20081;-68
2023/01/13 12:38:20;;;;;;;8.85;3.28;;;10.80;95.70;;;-146.68;100.00;58542.28;4856338;29;20107;-68
2023/01/13 12:41:19;;;;;;;6.97;2.90;;;11.50;95.80;;;-146.68;100.00;58542.28;4871606;29;20581;-68
2023/01/13 12:46:52;;;;;;;9.40;3.15;;;11.20;95.80;;;-146.68;100.00;58542.28;4843510;29;20579;-70
2023/01/13 12:49:44;;;;;;;9.93;2.33;;;11.30;95.10;;;-146.68;100.00;58542.28;4843019;29;20054;-71
2023/01/13 12:52:17;;;;;;;8.38;2.78;;;11.30;95.10;;;-146.68;100.00;58542.28;4846614;29;20055;-71
2023/01/13 12:54:44;;;;;;;7.93;2.63;;;11.20;94.90;;;-146.68;100.00;58542.28;4859259;29;20056;-71
2023/01/13 12:57:22;;;;;;;9.70;3.33;;;11.20;95.00;;;-146.68;100.00;58542.28;4873372;29;20049;-70
2023/01/13 13:00:04;;;;;;;14.45;3.25;;;11.30;94.90;;;-146.68;100.00;58542.28;4872945;29;20049;-70
2023/01/13 13:02:40;;;;;;;10.90;3.13;;;11.50;95.00;;;-146.68;100.00;58542.28;4869921;29;20076;-71
2023/01/13 13:05:33;;;;;;;7.68;2.80;;;12.40;95.20;;;-146.68;100.00;58542.28;4830862;29;20065;-71
2023/01/13 13:08:10;;;;;;;7.22;2.08;;;13.50;93.40;;;-146.68;100.00;58542.28;4778032;29;20079;-70
2023/01/13 13:10:54;;;;;;;5.18;2.70;;;14.50;91.20;;;-146.68;100.00;58542.28;4784531;29;20063;-71
2023/01/13 13:13:47;;;;;;;4.05;1.75;;;15.00;91.10;;;-146.68;100.00;58542.28;4775956;29;20235;-70
2023/01/13 13:16:28;;;;;;;4.00;2.40;;;15.00;88.90;;;-146.68;100.00;58542.28;4787980;29;20039;-69
2023/01/13 13:19:16;;;;;;;12.27;3.75;;;15.50;88.20;;;-146.68;100.00;58542.28;4789725;29;20101;-70
2023/01/13 13:22:17;;;;;;;11.55;5.45;;;15.90;87.70;;;-146.68;100.00;58542.28;4793254;29;20047;-72
2023/01/13 13:24:47;;;;;;;5.13;2.17;;;16.20;85.70;;;-146.68;100.00;58542.28;4776306;29;20134;-71
2023/01/13 13:27:53;;;;;;;6.55;2.30;;;16.30;82.70;;;-146.68;100.00;58542.28;4769928;29;21193;-70
2023/01/13 13:30:32;;;;;;;5.15;2.17;;;15.80;82.80;;;-146.68;100.00;58542.28;4773571;29;20423;-71
2023/01/13 13:33:33;;;;;;;5.13;2.95;;;15.90;83.20;;;-146.68;100.00;58542.28;4780926;29;20662;-72
2023/01/13 13:36:52;;;;;;;6.10;2.10;;;16.60;82.10;;;-146.68;100.00;58542.28;4791598;29;20043;-72
2023/01/13 13:48:31;;;;;;;5.97;2.05;;;16.90;78.20;;;-146.68;100.00;58542.28;4859456;29;20053;-72
2023/01/13 13:51:03;;;;;;;6.22;2.50;;;17.10;76.80;;;-146.68;100.00;58542.28;4852867;29;20144;-71
2023/01/13 13:53:35;;;;;;;7.18;2.40;;;16.40;78.60;;;-146.68;100.00;58542.28;4857646;29;20105;-72
2023/01/13 13:56:13;;;;;;;9.20;2.70;;;15.40;80.00;;;-146.68;100.00;58542.28;4839903;29;20121;-72
2023/01/13 13:58:41;;;;;;;7.00;2.17;;;14.50;83.30;;;-146.68;100.00;58542.28;4840856;29;20046;-72
2023/01/13 14:01:38;;;;;;;7.28;2.53;;;13.70;84.10;;;-146.68;100.00;58542.28;4830140;29;20143;-73
2023/01/13 14:04:26;;;;;;;8.15;2.55;;;13.30;89.40;;;-146.68;100.00;58542.28;4886947;29;20059;-72
2023/01/13 14:07:05;;;;;;;11.57;5.60;;;12.50;92.00;;;-146.68;100.00;58542.28;4863297;29;20053;-72
2023/01/13 14:09:46;;;;;;;9.18;3.13;;;11.80;95.80;;;-146.68;100.00;58542.28;4839553;29;20053;-72
2023/01/13 14:12:23;;;;;;;10.80;6.05;;;11.60;98.00;;;-146.68;100.00;58542.28;4877079;29;20048;-72
2023/01/13 14:14:54;;;;;;;14.13;8.10;;;11.90;98.70;;;-146.68;100.00;58542.28;4841827;29;20049;-72
2023/01/13 14:17:27;;;;;;;15.75;4.10;;;12.30;97.70;;;-146.68;100.00;58542.28;4851435;29;20052;-73
2023/01/13 14:20:08;;;;;;;14.07;5.80;;;13.00;96.40;;;-146.68;100.00;58542.28;4859210;29;20132;-73
2023/01/13 14:22:35;;;;;;;8.02;3.45;;;13.30;96.80;;;-146.68;100.00;58542.28;4856907;29;20606;-73
2023/01/13 14:25:47;;;;;;;11.50;5.20;;;13.70;95.60;;;-146.68;100.00;58542.28;4855783;29;20132;-73
2023/01/13 14:28:35;;;;;;;13.65;4.75;;;13.50;94.00;;;-146.68;100.00;58542.28;4845668;29;20536;-73
2023/01/13 14:31:05;;;;;;;12.40;3.70;;;13.20;94.00;;;-146.68;100.00;58542.28;4872040;29;20105;-72
2023/01/13 14:33:57;;;;;;;;;;;12.80;94.60;;;-146.68;100.00;58542.28;4852676;29;20682;-72
2023/01/13 14:36:40;;;;;;;9.90;3.30;;;12.60;94.20;;;-146.68;100.00;58542.28;4853006;29;19935;-74
2023/01/13 14:39:13;;;;;;;13.93;8.45;;;12.20;94.10;;;-146.68;100.00;58542.28;4873973;29;20056;-73
2023/01/13 14:41:41;;;;;;;11.52;3.42;;;12.10;95.00;;;-146.68;100.00;58542.28;4862453;29;20066;-73
2023/01/13 14:44:37;;;;;;;10.27;4.05;;;12.00;94.60;;;-146.68;100.00;58542.28;4864599;29;20065;-72
2023/01/13 14:47:26;;;;;;;13.02;9.32;;;11.90;95.00;;;-146.68;100.00;58542.28;4859647;29;20053;-73
2023/01/13 14:50:26;;;;;;;9.75;3.97;;;11.80;95.10;;;-146.68;100.00;58542.28;4858604;29;20067;-73
2023/01/13 14:52:59;;;;;;;15.20;12.48;;;11.80;95.00;;;-146.68;100.00;58542.28;4864706;29;20129;-73
2023/01/13 14:55:27;;;;;;;12.55;10.63;;;11.50;95.40;;;-146.68;100.00;58542.28;4840938;29;20153;-73
2023/01/13 14:58:30;;;;;;;9.25;3.17;;;11.40;95.70;;;-146.68;100.00;58542.28;4855941;29;20049;-73
2023/01/13 15:01:35;;;;;;;10.00;5.68;;;11.40;95.30;;;-146.68;100.00;58542.28;4841149;29;20053;-73
2023/01/13 15:04:37;;;;;;;7.30;3.33;;;11.50;96.20;;;-146.68;100.00;58542.28;4841364;29;20121;-72
2023/01/13 15:07:04;;;;;;;6.90;4.00;;;12.00;95.90;;;-146.68;100.00;58542.28;4806588;29;20069;-73
2023/01/13 15:09:40;;;;;;;6.15;2.65;;;11.50;95.80;;;-146.68;100.00;58542.28;4823045;29;20098;-73
2023/01/13 15:12:35;;;;;;;12.73;4.10;;;11.40;95.90;;;-146.68;100.00;58542.28;4812718;29;20121;-73
2023/01/13 15:15:20;;;;;;;9.85;3.35;;;11.50;96.10;;;-146.68;100.00;58542.28;4858148;29;20057;-73
2023/01/13 15:17:47;;;;;;;6.85;2.72;;;11.20;96.30;;;-146.68;100.00;58542.28;4847580;29;20126;-73
2023/01/13 15:20:18;;;;;;;8.27;3.58;;;11.10;95.90;;;-146.68;100.00;58542.28;4876737;29;20053;-72
2023/01/13 15:22:46;;;;;;;11.55;4.78;;;11.00;96.30;;;-146.68;100.00;58542.28;4858056;29;20413;-71
2023/01/13 15:25:13;;;;;;;11.73;3.15;;;11.00;96.30;;;-146.68;100.00;58542.28;4842231;29;20551;-72
2023/01/13 15:27:43;;;;;;;9.25;3.58;;;10.90;95.80;;;-146.68;100.00;58542.28;4855067;29;20543;-72
2023/01/13 15:30:23;;;;;;;10.02;3.83;;;10.80;95.80;;;-146.68;100.00;58542.28;4875978;29;20063;-70
2023/01/13 15:32:55;;;;;;;9.27;5.07;;;10.70;96.10;;;-146.68;100.00;58542.28;4857215;29;20045;-70
2023/01/13 15:35:28;;;;;;;12.93;3.70;;;10.70;96.50;;;-146.68;100.00;58542.28;4857858;29;20052;-71
2023/01/13 15:37:56;;;;;;;15.32;3.85;;;10.60;97.00;;;-146.68;100.00;58542.28;4841133;29;20098;-72
2023/01/13 15:40:31;;;;;;;8.40;4.40;;;10.60;96.60;;;-146.68;100.00;58542.28;4860496;29;20049;-71
2023/01/13 15:48:36;;;;;;;18.77;8.52;;;10.40;97.10;;;-146.68;100.00;58542.28;4858460;29;20053;-71
2023/01/13 15:51:11;;;;;;;19.83;13.32;;;10.30;97.60;;;-146.68;100.00;58542.28;4858269;29;20081;-71
2023/01/13 15:53:39;;;;;;;27.05;20.08;;;10.30;97.60;;;-146.68;100.00;58542.28;4841952;29;20061;-71
2023/01/13 15:56:21;;;;;;;26.15;10.73;;;10.20;97.60;;;-146.68;100.00;58542.28;4842090;29;20584;-70
2023/01/13 15:58:49;;;;;;;14.65;7.45;;;10.10;98.00;;;-146.68;100.00;58542.28;4849368;29;20060;-71
2023/01/13 16:01:16;;;;;;;10.15;3.58;;;10.20;97.50;;;-146.68;100.00;58542.28;4860991;29;20065;-72
2023/01/13 16:03:44;;;;;;;10.63;3.47;;;10.20;97.20;;;-146.68;100.00;58542.28;4863030;29;20053;-71
2023/01/13 16:06:23;;;;;;;7.60;2.72;;;10.10;96.90;;;-146.68;100.00;58542.28;4876214;29;20052;-71
2023/01/13 16:08:51;;;;;;;8.60;3.03;;;10.10;97.00;;;-146.68;100.00;58542.28;4860626;29;20076;-72
2023/01/13 16:11:18;;;;;;;11.18;3.97;;;10.10;96.50;;;-146.68;100.00;58542.28;4860188;29;20057;-72
2023/01/13 16:13:45;;;;;;;13.93;6.00;;;10.00;96.30;;;-146.68;100.00;58542.28;4876015;29;20057;-74
2023/01/13 16:16:23;;;;;;;10.65;4.82;;;10.00;96.50;;;-146.68;100.00;58542.28;4859405;29;20052;-72
2023/01/13 16:18:54;;;;;;;9.90;6.25;;;9.90;96.70;;;-146.68;100.00;58542.28;4873859;29;20298;-72
2023/01/13 16:21:22;;;;;;;7.38;3.35;;;9.90;96.90;;;-146.68;100.00;58542.28;4856543;29;20136;-72
2023/01/13 16:23:50;;;;;;;10.15;3.92;;;9.80;97.20;;;-146.68;100.00;58542.28;4870298;29;20092;-72
2023/01/13 16:26:25;;;;;;;9.52;4.72;;;9.80;97.10;;;-146.68;100.00;58542.28;4847294;29;20192;-71
2023/01/13 16:28:55;;;;;;;10.52;3.55;;;9.80;96.90;;;-146.68;100.00;58542.28;4863221;29;20053;-71
2023/01/13 16:31:48;;;;;;;11.07;4.22;;;9.70;97.10;;;-146.68;100.00;58542.28;4843778;29;20057;-71